createdAt,value
2022-11-14T00:00:14.625Z,8.2
2022-11-14T00:05:27.068Z,8.21
2022-11-14T00:10:39.257Z,8.17
2022-11-14T00:15:52.316Z,8.15
2022-11-14T00:21:04.882Z,8.15
2022-11-14T00:26:17.164Z,8.16
2022-11-14T00:31:29.713Z,8.12
2022-11-14T00:36:42.051Z,8.07
2022-11-14T00:41:54.362Z,8.01
2022-11-14T00:47:06.665Z,7.99
2022-11-14T00:52:19.198Z,7.98
2022-11-14T00:57:31.446Z,7.98
2022-11-14T01:02:43.938Z,7.94
2022-11-14T01:07:56.279Z,7.92
2022-11-14T01:13:08.475Z,7.92
2022-11-14T01:18:20.657Z,7.86
2022-11-14T01:23:33.130Z,7.85
2022-11-14T01:28:45.950Z,7.84
2022-11-14T01:33:58.282Z,7.82
2022-11-14T01:39:10.720Z,7.79
2022-11-14T01:44:23.245Z,7.78
2022-11-14T01:49:35.574Z,7.77
2022-11-14T01:54:48.123Z,7.75
2022-11-14T02:00:00.319Z,7.74
2022-11-14T02:05:12.752Z,7.74
2022-11-14T02:10:25.083Z,7.72
2022-11-14T02:15:37.373Z,7.69
2022-11-14T02:20:50.019Z,7.67
2022-11-14T02:26:02.443Z,7.61
2022-11-14T02:31:14.560Z,7.57
2022-11-14T02:36:27.007Z,7.58
2022-11-14T02:41:39.483Z,7.6
2022-11-14T02:46:51.628Z,7.61
2022-11-14T02:52:03.807Z,7.57
2022-11-14T02:57:16.405Z,7.63
2022-11-14T03:02:28.608Z,7.66
2022-11-14T03:07:40.927Z,7.64
2022-11-14T03:12:53.661Z,7.63
2022-11-14T03:18:05.905Z,7.66
2022-11-14T03:23:18.400Z,7.68
2022-11-14T03:28:30.973Z,7.69
2022-11-14T03:33:42.889Z,7.7
2022-11-14T03:38:55.759Z,7.68
2022-11-14T03:44:08.252Z,7.66
2022-11-14T03:49:20.441Z,7.61
2022-11-14T03:54:32.677Z,7.58
2022-11-14T03:59:45.496Z,7.57
2022-11-14T04:04:57.803Z,7.52
2022-11-14T04:10:10.024Z,7.56
2022-11-14T04:15:22.233Z,7.53
2022-11-14T04:20:34.472Z,7.52
2022-11-14T04:25:46.806Z,7.5
2022-11-14T04:30:59.117Z,7.49
2022-11-14T04:36:11.249Z,7.45
2022-11-14T04:41:23.660Z,7.44
2022-11-14T04:46:36.106Z,7.71
2022-11-14T04:51:48.101Z,7.6
2022-11-14T04:57:00.478Z,7.47
2022-11-14T05:02:12.762Z,7.42
2022-11-14T05:07:25.146Z,7.36
2022-11-14T05:12:37.610Z,7.34
2022-11-14T05:17:49.855Z,7.32
2022-11-14T05:23:02.206Z,7.29
2022-11-14T05:28:14.663Z,7.29
2022-11-14T05:33:26.939Z,7.28
2022-11-14T05:38:39.437Z,7.25
2022-11-14T05:43:51.878Z,7.25
2022-11-14T05:49:04.232Z,7.23
2022-11-14T05:54:16.394Z,7.23
2022-11-14T05:59:28.717Z,7.2
2022-11-14T06:04:41.467Z,7.69
2022-11-14T06:09:53.460Z,7.85
2022-11-14T06:15:05.693Z,7.67
2022-11-14T06:20:17.840Z,7.56
2022-11-14T06:25:30.018Z,7.51
2022-11-14T06:30:42.128Z,7.38
2022-11-14T06:35:54.570Z,7.33
2022-11-14T06:41:06.784Z,7.29
2022-11-14T06:46:19.431Z,7.59
2022-11-14T06:51:31.536Z,7.63
2022-11-14T06:56:44.424Z,8.25
2022-11-14T07:01:56.827Z,8.65
2022-11-14T07:07:09.696Z,9.01
2022-11-14T07:12:22.157Z,9.29
2022-11-14T07:17:34.573Z,9.4
2022-11-14T07:22:46.986Z,9.32
2022-11-14T07:27:59.207Z,9.18
2022-11-14T07:33:11.692Z,9.2
2022-11-14T07:38:24.526Z,9.19
2022-11-14T07:43:36.661Z,8.9
2022-11-14T07:48:48.824Z,8.53
2022-11-14T07:54:01.290Z,8.38
2022-11-14T07:59:13.464Z,8.3
2022-11-14T08:04:25.688Z,8.24
2022-11-14T08:09:37.973Z,8.23
2022-11-14T08:14:50.246Z,8.27
2022-11-14T08:20:02.749Z,8.19
2022-11-14T08:25:15.229Z,8.15
2022-11-14T08:30:27.730Z,8.19
2022-11-14T08:35:39.998Z,8.18
2022-11-14T08:40:52.499Z,8.24
2022-11-14T08:46:04.729Z,8.33
2022-11-14T08:51:17.222Z,8.42
2022-11-14T08:56:29.666Z,8.52
2022-11-14T09:01:41.924Z,8.62
2022-11-14T09:06:54.495Z,8.78
2022-11-14T09:12:06.927Z,8.9
2022-11-14T09:17:19.397Z,8.97
2022-11-14T09:22:31.631Z,9.11
2022-11-14T09:27:44.212Z,9.27
2022-11-14T09:32:56.989Z,9.41
2022-11-14T09:38:09.373Z,9.58
2022-11-14T09:43:21.731Z,9.74
2022-11-14T09:48:34.094Z,9.82
2022-11-14T09:53:46.222Z,10.03
2022-11-14T09:58:58.671Z,10.22
2022-11-14T10:04:11.032Z,10.44
2022-11-14T10:09:27.430Z,10.7
2022-11-14T10:14:35.891Z,10.98
2022-11-14T10:19:48.262Z,11.2
2022-11-14T10:25:00.767Z,11.33
2022-11-14T10:30:13.120Z,11.45
2022-11-14T10:35:25.364Z,11.57
2022-11-14T10:40:37.631Z,11.64
2022-11-14T10:45:50.114Z,11.79
2022-11-14T10:51:02.353Z,12.07
2022-11-14T10:56:14.928Z,12.32
2022-11-14T11:01:27.454Z,12.43
2022-11-14T11:06:39.742Z,12.52
2022-11-14T11:11:52.108Z,12.74
2022-11-14T11:17:04.441Z,13.02
2022-11-14T11:22:16.953Z,13.3
2022-11-14T11:27:29.159Z,13.48
2022-11-14T11:32:41.584Z,13.65
2022-11-14T11:37:53.832Z,13.81
2022-11-14T11:43:37.079Z,13.95
2022-11-14T11:48:18.974Z,14.16
2022-11-14T11:53:31.518Z,14.34
2022-11-14T11:58:43.822Z,14.6
2022-11-14T12:03:56.605Z,14.79
2022-11-14T12:09:08.854Z,14.86
2022-11-14T12:14:21.200Z,15.03
2022-11-14T12:19:33.642Z,15.14
2022-11-14T12:24:45.670Z,15.05
2022-11-14T12:29:58.084Z,14.99
2022-11-14T12:35:10.668Z,15.35
2022-11-14T12:40:23.128Z,15.57
2022-11-14T12:45:35.440Z,15.58
2022-11-14T12:50:48.021Z,15.91
2022-11-14T12:56:00.191Z,15.87
2022-11-14T13:01:12.579Z,15.95
2022-11-14T13:06:24.663Z,15.82
2022-11-14T13:11:37.080Z,15.85
2022-11-14T13:16:49.491Z,16.18
2022-11-14T13:22:01.917Z,16.14
2022-11-14T13:27:14.136Z,16.2
2022-11-14T13:32:26.331Z,16.12
2022-11-14T13:37:38.583Z,16.05
2022-11-14T13:42:50.925Z,16.08
2022-11-14T13:48:03.610Z,16.13
2022-11-14T13:53:16.100Z,16.28
2022-11-14T13:58:28.690Z,16.19
2022-11-14T14:03:41.218Z,16.11
2022-11-14T14:08:53.548Z,16.12
2022-11-14T14:14:05.846Z,16.14
2022-11-14T14:19:21.740Z,16.08
2022-11-14T14:24:30.713Z,16
2022-11-14T14:29:42.987Z,15.83
2022-11-14T14:40:08.213Z,15.76
2022-11-14T14:45:20.522Z,15.62
2022-11-14T14:50:32.742Z,15.49
2022-11-14T14:55:45.084Z,15.28
2022-11-14T15:00:57.523Z,14.95
2022-11-14T15:06:09.696Z,14.69
2022-11-14T15:11:22.083Z,14.67
2022-11-14T15:16:34.352Z,14.3
2022-11-14T15:21:47.548Z,14.01
2022-11-14T15:26:59.664Z,13.67
2022-11-14T15:32:12.052Z,13.38
2022-11-14T15:37:24.507Z,13.16
2022-11-14T15:42:36.772Z,12.95
2022-11-14T15:47:48.895Z,12.75
2022-11-14T15:53:01.156Z,12.57
2022-11-14T15:58:27.533Z,12.43
2022-11-14T16:03:25.663Z,12.31
2022-11-14T16:08:38.311Z,12.21
2022-11-14T16:13:51.887Z,12.06
2022-11-14T16:19:04.000Z,11.9
2022-11-14T16:24:16.192Z,11.8
2022-11-14T16:29:28.742Z,11.73
2022-11-14T16:34:41.082Z,11.64
2022-11-14T16:39:53.401Z,11.58
2022-11-14T16:45:05.957Z,11.48
2022-11-14T16:50:18.349Z,11.39
2022-11-14T16:55:30.850Z,11.33
2022-11-14T17:00:43.330Z,11.27
2022-11-14T17:05:55.530Z,11.18
2022-11-14T17:11:08.047Z,11.11
2022-11-14T17:16:20.289Z,11.01
2022-11-14T17:21:32.669Z,10.89
2022-11-14T17:26:44.897Z,10.83
2022-11-14T17:31:57.133Z,10.76
2022-11-14T17:37:09.432Z,10.7
2022-11-14T17:42:21.905Z,10.62
2022-11-14T17:47:34.006Z,10.56
2022-11-14T17:52:46.193Z,10.5
2022-11-14T17:57:58.717Z,10.46
2022-11-14T18:03:11.301Z,10.44
2022-11-14T18:08:23.580Z,10.42
2022-11-14T18:13:35.903Z,10.33
2022-11-14T18:18:48.147Z,10.24
2022-11-14T18:24:00.588Z,10.2
2022-11-14T18:29:12.886Z,10.2
2022-11-14T18:34:25.394Z,10.21
2022-11-14T18:39:37.639Z,10.17
2022-11-14T18:44:50.051Z,10.11
2022-11-14T18:50:02.377Z,10.05
2022-11-14T18:55:14.599Z,9.98
2022-11-14T19:00:26.943Z,9.88
2022-11-14T19:05:38.952Z,9.8
2022-11-14T19:10:51.284Z,9.72
2022-11-14T19:16:03.476Z,9.68
2022-11-14T19:21:15.846Z,9.66
2022-11-14T19:26:28.145Z,9.64
2022-11-14T19:31:40.352Z,9.6
2022-11-14T19:36:59.743Z,9.6
2022-11-14T19:42:05.434Z,9.57
2022-11-14T19:47:17.927Z,9.59
2022-11-14T19:52:30.388Z,9.61
2022-11-14T19:57:42.984Z,9.58
2022-11-14T20:02:55.865Z,9.55
2022-11-14T20:08:08.533Z,9.51
2022-11-14T20:13:21.006Z,9.52
2022-11-14T20:23:45.657Z,9.46
2022-11-14T20:28:57.753Z,9.4
2022-11-14T20:34:10.207Z,9.32
2022-11-14T20:39:22.587Z,9.24
2022-11-14T20:44:34.707Z,9.18
2022-11-14T20:49:47.047Z,9.13
2022-11-14T20:54:59.518Z,9.09
2022-11-14T21:00:11.645Z,9.04
2022-11-14T21:05:23.905Z,9.01
2022-11-14T21:10:36.373Z,8.97
2022-11-14T21:15:48.694Z,8.94
2022-11-14T21:21:01.147Z,8.93
2022-11-14T21:26:13.551Z,8.91
2022-11-14T21:31:25.934Z,8.87
2022-11-14T21:36:44.717Z,8.83
2022-11-14T21:41:50.819Z,8.8
2022-11-14T21:47:03.086Z,8.81
2022-11-14T21:52:15.559Z,8.78
2022-11-14T21:57:27.989Z,8.7
2022-11-14T22:02:40.382Z,8.63
2022-11-14T22:07:52.533Z,8.63
2022-11-14T22:13:04.830Z,8.6
2022-11-14T22:18:17.145Z,8.62
2022-11-14T22:23:29.745Z,8.61
2022-11-14T22:28:42.853Z,8.59
2022-11-14T22:33:55.136Z,8.59
2022-11-14T22:39:07.595Z,8.58
2022-11-14T22:44:19.927Z,8.53
2022-11-14T22:49:32.169Z,8.43
2022-11-14T22:54:44.436Z,8.34
2022-11-14T22:59:56.778Z,8.29
2022-11-14T23:05:09.066Z,8.26
2022-11-14T23:10:21.395Z,8.23
2022-11-14T23:15:33.822Z,8.2
2022-11-14T23:20:46.356Z,8.16
2022-11-14T23:25:58.510Z,8.14
2022-11-14T23:31:11.038Z,8.1
2022-11-14T23:36:23.353Z,8.14
2022-11-14T23:41:35.745Z,8.1
2022-11-14T23:46:48.097Z,8.05
2022-11-14T23:52:00.409Z,7.99
2022-11-14T23:57:12.816Z,7.94
